Time;durP1;ratioP1;P1;durP2;ratioP2;P2;SDS_P1;SDS_P2;PMS_P1;PMS_P2;Temp;Humidity;BMP_temperature;BMP_pressure;BME280_temperature;BME280_humidity;BME280_pressure;Samples;Min_cycle;Max_cycle;Signal;HPM_P1;HPM_P2
2021/10/17 00:00:45;;;;;;;98.38;54.00;;;;;;;;;;4974240;28;20026;-67
2021/10/17 00:03:11;;;;;;;77.38;44.25;;;;;;;;;;4974614;28;20187;-69
2021/10/17 00:05:37;;;;;;;80.10;43.63;;;;;;;;;;4974324;28;20031;-67
2021/10/17 00:08:05;;;;;;;95.97;51.85;;;;;;;;;;4973224;28;20114;-69
2021/10/17 00:10:33;;;;;;;96.80;51.75;;;;;;;;;;4974499;28;20092;-68
2021/10/17 00:13:01;;;;;;;102.65;53.53;;;;;;;;;;4974380;28;20035;-67
2021/10/17 00:15:28;;;;;;;107.47;56.53;;;;;;;;;;4972893;28;20058;-68
2021/10/17 00:17:54;;;;;;;94.47;52.65;;;;;;;;;;4974463;28;20023;-69
2021/10/17 00:20:22;;;;;;;101.03;54.03;;;;;;;;;;4974438;28;20535;-67
2021/10/17 00:22:49;;;;;;;103.70;54.90;;;;;;;;;;4974006;28;20027;-70
2021/10/17 00:25:16;;;;;;;110.55;58.00;;;;;;;;;;4973053;28;20526;-69
2021/10/17 00:27:42;;;;;;;112.82;60.58;;;;;;;;;;4974267;28;20113;-67
2021/10/17 00:30:09;;;;;;;100.10;55.55;;;;;;;;;;4974271;28;20023;-69
2021/10/17 00:32:36;;;;;;;92.82;50.80;;;;;;;;;;4974294;28;20161;-66
2021/10/17 00:35:04;;;;;;;87.72;50.13;;;;;;;;;;4972891;28;20074;-68
2021/10/17 00:37:30;;;;;;;81.43;45.63;;;;;;;;;;4972929;28;20034;-70
2021/10/17 00:39:56;;;;;;;78.13;45.25;;;7.10;99.90;;;;;;4974175;28;20031;-67
2021/10/17 00:42:23;;;;;;;86.20;46.55;;;7.00;99.90;;;;;;4974204;28;20038;-67
2021/10/17 00:44:59;;;;;;;77.22;44.92;;;7.00;99.90;;;;;;4972848;28;20062;-67
2021/10/17 00:47:25;;;;;;;80.70;46.15;;;6.90;99.90;;;;;;4974129;28;20031;-66
2021/10/17 00:49:52;;;;;;;82.72;44.13;;;6.80;99.90;;;;;;4972790;28;20042;-67
2021/10/17 00:52:18;;;;;;;79.90;45.22;;;6.80;99.90;;;;;;4972800;28;20457;-68
2021/10/17 00:54:46;;;;;;;89.78;47.42;;;6.90;99.90;;;;;;4973703;28;20031;-69
2021/10/17 00:57:14;;;;;;;93.50;49.63;;;6.80;99.90;;;;;;4974093;28;20810;-67
2021/10/17 00:59:40;;;;;;;88.30;49.85;;;6.80;99.90;;;;;;4973908;28;20027;-66
2021/10/17 01:02:07;;;;;;;109.22;54.78;;;6.80;99.90;;;;;;4972655;28;20031;-68
2021/10/17 01:04:36;;;;;;;94.65;51.75;;;6.80;99.90;;;;;;4973947;28;20485;-67
2021/10/17 01:07:02;;;;;;;100.82;56.58;;;6.80;99.90;;;;;;4974017;28;20102;-70
2021/10/17 01:09:28;;;;;;;105.85;57.42;;;6.90;99.90;;;;;;4972624;28;20030;-69
2021/10/17 01:11:54;;;;;;;111.63;63.85;;;6.90;99.90;;;;;;4973920;28;20037;-69
2021/10/17 01:14:22;;;;;;;103.55;58.40;;;6.90;99.90;;;;;;4977381;28;20057;-71
2021/10/17 01:16:49;;;;;;;101.55;57.72;;;6.90;99.90;;;;;;4975869;28;20133;-68
2021/10/17 01:19:16;;;;;;;99.65;55.47;;;6.90;99.90;;;;;;4976188;28;20050;-68
2021/10/17 01:21:43;;;;;;;113.80;61.67;;;6.90;99.90;;;;;;4976229;28;20058;-69
2021/10/17 01:24:10;;;;;;;116.93;64.32;;;6.90;99.90;;;;;;4976161;28;20038;-69
2021/10/17 01:26:37;;;;;;;111.32;62.42;;;6.80;99.90;;;;;;4976128;28;20126;-68
2021/10/17 01:29:04;;;;;;;113.88;63.75;;;6.80;99.90;;;;;;4976031;28;20153;-70
2021/10/17 01:31:39;;;;;;;111.32;59.38;;;6.80;99.90;;;;;;4977319;28;20057;-67
2021/10/17 01:34:07;;;;;;;113.82;62.47;;;6.80;99.90;;;;;;4977212;28;20039;-70
2021/10/17 01:36:35;;;;;;;114.68;61.90;;;6.80;99.90;;;;;;4977547;28;20038;-67
2021/10/17 01:39:03;;;;;;;104.95;57.38;;;6.80;99.90;;;;;;4977179;28;20038;-70
2021/10/17 01:41:29;;;;;;;105.75;57.53;;;6.80;99.90;;;;;;4977139;28;20023;-67
2021/10/17 01:44:09;;;;;;;116.50;62.08;;;6.80;99.90;;;;;;4977065;28;20034;-68
2021/10/17 01:46:36;;;;;;;127.28;67.88;;;6.90;99.90;;;;;;4976794;28;20027;-69
2021/10/17 01:49:07;;;;;;;103.50;57.70;;;6.80;99.90;;;;;;4976972;28;20038;-68
2021/10/17 01:51:34;;;;;;;91.38;52.13;;;6.80;99.90;;;;;;4976966;28;20423;-68
2021/10/17 01:54:03;;;;;;;99.50;55.85;;;6.90;99.90;;;;;;4976753;28;20046;-71
2021/10/17 01:56:29;;;;;;;88.80;48.97;;;6.90;99.90;;;;;;4975586;28;20579;-66
2021/10/17 01:58:54;;;;;;;76.80;45.40;;;6.80;99.90;;;;;;4975464;28;20058;-67
2021/10/17 02:01:20;;;;;;;82.07;47.03;;;6.80;99.90;;;;;;4976798;28;20031;-68
2021/10/17 02:03:46;;;;;;;85.85;47.20;;;6.80;99.90;;;;;;4976412;28;20476;-71
2021/10/17 02:06:12;;;;;;;82.25;48.38;;;6.80;99.90;;;;;;4976774;28;20565;-70
2021/10/17 02:08:38;;;;;;;90.63;50.88;;;6.80;99.90;;;;;;4976925;28;20033;-69
2021/10/17 02:11:04;;;;;;;95.13;55.70;;;6.80;99.90;;;;;;4975251;28;20027;-68
2021/10/17 02:13:30;;;;;;;128.05;70.25;;;6.80;99.90;;;;;;4976439;28;20058;-70
2021/10/17 02:15:56;;;;;;;103.50;59.17;;;6.80;99.90;;;;;;4976358;28;20042;-70
2021/10/17 02:18:21;;;;;;;100.53;56.03;;;6.70;99.90;;;;;;4976445;28;20035;-67
2021/10/17 02:20:47;;;;;;;97.43;51.55;;;6.80;99.90;;;;;;4976424;28;20535;-65
2021/10/17 02:23:14;;;;;;;84.53;51.08;;;6.70;99.90;;;;;;4976372;28;20035;-70
2021/10/17 02:25:39;;;;;;;98.40;55.95;;;6.70;99.90;;;;;;4975771;28;20026;-66
2021/10/17 02:28:05;;;;;;;95.47;50.83;;;6.60;99.90;;;;;;4974984;28;20034;-69
2021/10/17 02:30:31;;;;;;;100.15;53.47;;;6.50;99.90;;;;;;4975964;28;20435;-66
2021/10/17 02:32:57;;;;;;;89.65;52.83;;;6.60;99.90;;;;;;4975826;28;20031;-70
2021/10/17 02:35:23;;;;;;;88.03;50.22;;;6.50;99.90;;;;;;4976156;28;20035;-71
2021/10/17 02:37:49;;;;;;;97.82;56.08;;;6.50;99.90;;;;;;4976195;28;20527;-67
2021/10/17 02:40:15;;;;;;;110.35;60.35;;;6.50;99.90;;;;;;4974794;28;20027;-67
2021/10/17 02:42:41;;;;;;;103.68;58.03;;;6.40;99.90;;;;;;4976056;28;20035;-67
2021/10/17 02:45:07;;;;;;;112.38;63.83;;;6.40;99.90;;;;;;4974634;28;20510;-68
2021/10/17 02:47:33;;;;;;;111.05;60.70;;;6.40;99.90;;;;;;4975714;28;20078;-68
2021/10/17 02:49:59;;;;;;;106.03;59.05;;;6.40;99.90;;;;;;4975889;28;20388;-68
2021/10/17 02:52:25;;;;;;;130.50;66.20;;;6.40;99.90;;;;;;4975804;28;20026;-66
2021/10/17 02:54:51;;;;;;;116.32;61.58;;;6.40;99.90;;;;;;4975689;28;20804;-69
2021/10/17 02:57:17;;;;;;;111.13;63.05;;;6.30;99.90;;;;;;4975749;28;20033;-69
2021/10/17 02:59:47;;;;;;;101.97;54.58;;;6.30;99.90;;;;;;4975687;28;20045;-65
2021/10/17 03:02:14;;;;;;;116.88;56.28;;;6.20;99.90;;;;;;4974339;28;20089;-66
2021/10/17 03:04:39;;;;;;;105.80;53.63;;;6.10;99.90;;;;;;4974280;28;20031;-66
2021/10/17 03:07:05;;;;;;;98.85;51.95;;;6.10;99.90;;;;;;4974002;28;20117;-68
2021/10/17 03:09:31;;;;;;;86.90;47.00;;;6.00;99.90;;;;;;4975745;28;20387;-67
2021/10/17 03:11:57;;;;;;;81.50;45.08;;;6.00;99.90;;;;;;4973880;28;20033;-67
2021/10/17 03:14:23;;;;;;;78.82;46.65;;;5.90;99.90;;;;;;4975333;28;20554;-67
2021/10/17 03:16:49;;;;;;;85.53;47.58;;;5.90;99.90;;;;;;4973953;28;20159;-68
2021/10/17 03:19:15;;;;;;;90.80;47.47;;;5.90;99.90;;;;;;4974029;28;20055;-69
2021/10/17 03:21:42;;;;;;;87.65;47.92;;;5.90;99.90;;;;;;4975286;28;20027;-69
2021/10/17 03:24:08;;;;;;;86.18;47.05;;;5.90;99.90;;;;;;4973913;28;20130;-68
2021/10/17 03:26:34;;;;;;;94.35;52.25;;;5.90;99.90;;;;;;4974974;28;20105;-68
2021/10/17 03:29:00;;;;;;;95.88;52.03;;;5.90;99.90;;;;;;4975146;28;20457;-69
2021/10/17 03:31:26;;;;;;;97.57;52.03;;;6.00;99.90;;;;;;4975110;28;20527;-69
2021/10/17 03:33:52;;;;;;;102.38;53.95;;;6.00;99.90;;;;;;4975006;28;20045;-68
2021/10/17 03:36:17;;;;;;;96.03;51.33;;;5.90;99.90;;;;;;4972786;28;20028;-67
2021/10/17 03:38:45;;;;;;;95.97;51.20;;;6.00;99.90;;;;;;4973723;28;20129;-68
2021/10/17 03:41:13;;;;;;;101.47;50.90;;;5.90;99.90;;;;;;4973627;28;20065;-69
2021/10/17 03:43:40;;;;;;;99.82;50.97;;;6.00;99.90;;;;;;4974917;28;20041;-69
2021/10/17 03:46:06;;;;;;;102.57;51.55;;;6.00;99.90;;;;;;4975117;28;20037;-68
2021/10/17 03:48:33;;;;;;;96.03;53.38;;;6.00;99.90;;;;;;4974890;28;20026;-70
2021/10/17 03:50:59;;;;;;;104.15;51.85;;;5.90;99.90;;;;;;4974478;28;20361;-69
2021/10/17 03:53:25;;;;;;;100.40;53.28;;;5.90;99.90;;;;;;4974705;28;20041;-69
2021/10/17 03:55:51;;;;;;;97.93;50.08;;;5.90;99.90;;;;;;4973425;28;20035;-69
2021/10/17 03:58:16;;;;;;;86.85;48.25;;;5.90;99.90;;;;;;4974764;28;20085;-68
2021/10/17 04:00:42;;;;;;;82.60;45.25;;;5.90;99.90;;;;;;4974652;28;20033;-70
2021/10/17 04:03:15;;;;;;;85.25;48.22;;;6.00;99.90;;;;;;4974829;28;20034;-69
2021/10/17 04:05:41;;;;;;;82.47;45.00;;;6.00;99.90;;;;;;4974901;28;20121;-71
2021/10/17 04:08:08;;;;;;;76.60;44.75;;;6.00;99.90;;;;;;4973291;28;20129;-68
2021/10/17 04:10:34;;;;;;;80.38;43.38;;;6.00;99.90;;;;;;4974469;28;20531;-67
2021/10/17 04:13:00;;;;;;;78.68;43.92;;;6.00;99.90;;;;;;4974399;28;20109;-69
2021/10/17 04:15:26;;;;;;;77.35;44.55;;;6.10;99.90;;;;;;4974198;28;20161;-67
2021/10/17 04:17:52;;;;;;;81.05;43.03;;;6.00;99.90;;;;;;4974485;28;20097;-67
2021/10/17 04:20:18;;;;;;;87.38;46.10;;;6.00;99.90;;;;;;4974416;28;20038;-67
2021/10/17 04:22:44;;;;;;;89.68;49.38;;;6.00;99.90;;;;;;4974389;28;20023;-71
2021/10/17 04:25:10;;;;;;;81.95;44.33;;;5.90;99.90;;;;;;4973006;28;20035;-69
2021/10/17 04:27:37;;;;;;;80.10;44.08;;;5.90;99.90;;;;;;4974348;28;20033;-66
2021/10/17 04:30:06;;;;;;;83.18;42.35;;;5.90;99.90;;;;;;4974584;28;20037;-68
2021/10/17 04:32:32;;;;;;;71.47;40.53;;;6.00;99.90;;;;;;4973991;28;20030;-69
2021/10/17 04:34:59;;;;;;;68.28;40.83;;;6.00;99.90;;;;;;4974145;28;20031;-69
2021/10/17 04:37:26;;;;;;;68.60;38.63;;;6.00;99.90;;;;;;4974276;28;20031;-70
2021/10/17 04:39:52;;;;;;;69.70;39.88;;;6.00;99.90;;;;;;4973872;28;20073;-68
2021/10/17 04:42:18;;;;;;;71.18;38.38;;;6.00;99.90;;;;;;4974168;28;20054;-70
2021/10/17 04:44:44;;;;;;;68.28;37.72;;;6.00;99.90;;;;;;4974191;28;20034;-68
2021/10/17 04:47:10;;;;;;;69.25;40.42;;;6.00;99.90;;;;;;4974174;28;20511;-68
2021/10/17 04:49:36;;;;;;;72.82;39.03;;;6.00;99.90;;;;;;4978119;28;20045;-68
2021/10/17 04:52:01;;;;;;;65.38;37.33;;;5.90;99.90;;;;;;4978020;28;20056;-70
2021/10/17 04:54:27;;;;;;;75.10;35.78;;;5.90;99.90;;;;;;4978026;28;20031;-67
2021/10/17 04:56:53;;;;;;;75.82;38.67;;;5.90;99.90;;;;;;4977920;28;20049;-67
2021/10/17 04:59:21;;;;;;;70.82;37.75;;;6.00;99.90;;;;;;4977913;28;20027;-71
2021/10/17 05:01:48;;;;;;;67.00;34.65;;;5.90;99.90;;;;;;4977814;28;20026;-69
2021/10/17 05:04:15;;;;;;;61.33;32.83;;;5.90;99.90;;;;;;4977833;28;20490;-69
2021/10/17 05:06:41;;;;;;;62.92;34.25;;;5.90;99.90;;;;;;4976461;28;20098;-69
2021/10/17 05:09:07;;;;;;;57.08;33.13;;;5.90;99.90;;;;;;4976486;28;20030;-70
2021/10/17 05:11:33;;;;;;;60.33;33.67;;;5.90;99.90;;;;;;4976422;28;20096;-71
2021/10/17 05:13:59;;;;;;;64.95;37.00;;;5.90;99.90;;;;;;4976283;28;20046;-70
2021/10/17 05:16:25;;;;;;;65.78;36.38;;;5.90;99.90;;;;;;4975911;28;20499;-71
2021/10/17 05:18:50;;;;;;;58.10;34.28;;;5.80;99.90;;;;;;4977559;28;20117;-71
2021/10/17 05:21:16;;;;;;;65.63;36.47;;;5.90;99.90;;;;;;4977496;28;20030;-70
2021/10/17 05:23:42;;;;;;;61.17;35.17;;;5.90;99.90;;;;;;4977832;28;20386;-70
2021/10/17 05:26:08;;;;;;;73.65;40.33;;;5.90;99.90;;;;;;4976113;28;20034;-69
2021/10/17 05:28:34;;;;;;;66.35;36.88;;;5.90;99.90;;;;;;4976150;28;20058;-70
2021/10/17 05:31:03;;;;;;;70.50;39.97;;;5.90;99.90;;;;;;4976036;28;20031;-71
2021/10/17 05:33:33;;;;;;;72.05;40.53;;;5.90;99.90;;;;;;4977201;28;20126;-71
2021/10/17 05:35:59;;;;;;;81.65;38.95;;;5.90;99.90;;;;;;4977273;28;20483;-70
2021/10/17 05:38:25;;;;;;;71.88;39.45;;;6.00;99.90;;;;;;4977280;28;20034;-67
2021/10/17 05:40:51;;;;;;;76.28;38.63;;;6.00;99.90;;;;;;4977182;28;20453;-70
2021/10/17 05:43:17;;;;;;;79.55;40.47;;;6.00;99.90;;;;;;4975863;28;20029;-70
2021/10/17 05:45:42;;;;;;;77.03;40.40;;;6.00;99.90;;;;;;4977336;28;20464;-68
2021/10/17 05:48:08;;;;;;;67.22;39.38;;;6.10;99.90;;;;;;4977363;28;20034;-69
2021/10/17 05:50:34;;;;;;;86.35;42.80;;;6.10;99.90;;;;;;4977282;28;20089;-68
2021/10/17 05:53:00;;;;;;;68.40;37.53;;;6.10;99.90;;;;;;4976834;28;20472;-69
2021/10/17 05:55:26;;;;;;;62.53;35.72;;;6.20;99.90;;;;;;4976858;28;20031;-68
2021/10/17 05:57:52;;;;;;;69.47;41.20;;;6.30;99.90;;;;;;4976544;28;20042;-69
2021/10/17 06:00:20;;;;;;;75.18;42.45;;;6.30;99.90;;;;;;4974492;28;20031;-71
2021/10/17 06:02:46;;;;;;;67.03;38.20;;;6.30;99.90;;;;;;4976724;28;20027;-71
2021/10/17 06:05:11;;;;;;;75.18;43.03;;;6.30;99.90;;;;;;4976449;28;20046;-70
2021/10/17 06:07:38;;;;;;;90.10;52.05;;;6.40;99.90;;;;;;4976728;28;20080;-70
2021/10/17 06:10:09;;;;;;;126.10;72.18;;;6.40;99.90;;;;;;4975363;28;20031;-71
2021/10/17 06:12:37;;;;;;;130.60;80.70;;;6.40;99.90;;;;;;4976578;28;20023;-69
2021/10/17 06:15:05;;;;;;;125.13;71.80;;;6.50;99.90;;;;;;4976430;28;20426;-70
2021/10/17 06:17:32;;;;;;;105.95;62.63;;;6.60;99.90;;;;;;4976109;28;20042;-70
2021/10/17 06:19:58;;;;;;;108.40;62.47;;;6.70;99.90;;;;;;4976443;28;20027;-69
2021/10/17 06:22:23;;;;;;;119.05;67.53;;;6.80;99.90;;;;;;4976078;28;20365;-71
2021/10/17 06:24:50;;;;;;;131.23;75.88;;;6.90;99.90;;;;;;4975096;28;20085;-71
2021/10/17 06:27:15;;;;;;;154.93;98.35;;;7.00;99.90;;;;;;4976321;28;20464;-71
2021/10/17 06:29:41;;;;;;;167.70;109.22;;;7.00;99.90;;;;;;4976286;28;20035;-71
2021/10/17 06:32:10;;;;;;;159.27;96.93;;;7.10;99.90;;;;;;4976263;28;20535;-71
2021/10/17 06:34:36;;;;;;;150.05;87.22;;;7.10;99.90;;;;;;4976102;28;20039;-71
2021/10/17 06:37:02;;;;;;;132.93;78.35;;;7.20;99.90;;;;;;4976068;28;20039;-70
2021/10/17 06:39:28;;;;;;;120.03;69.65;;;7.30;99.90;;;;;;4976439;28;20027;-70
2021/10/17 06:41:54;;;;;;;114.88;63.35;;;7.50;99.90;;;;;;4976042;28;20383;-68
2021/10/17 06:44:20;;;;;;;110.50;63.83;;;;;;;;;;4974685;28;20031;-70
2021/10/17 06:46:47;;;;;;;114.05;60.63;;;;;;;;;;4975929;28;20027;-70
2021/10/17 06:49:13;;;;;;;115.50;60.83;;;;;;;;;;4975970;28;20085;-73
2021/10/17 06:51:39;;;;;;;130.52;65.22;;;;;;;;;;4975881;28;20023;-73
2021/10/17 06:54:05;;;;;;;121.55;63.97;;;;;;;;;;4975745;28;20058;-72
2021/10/17 06:56:32;;;;;;;127.35;63.53;;;;;;;;;;4976048;28;20030;-72
2021/10/17 06:58:58;;;;;;;119.88;64.10;;;;;;;;;;4975802;28;20078;-72
2021/10/17 07:01:26;;;;;;;96.50;53.47;;;;;;;;;;4975684;28;20055;-72
2021/10/17 07:03:54;;;;;;;89.20;45.95;;;;;;;;;;4974341;28;20552;-72
2021/10/17 07:06:21;;;;;;;66.38;37.47;;;;;;;;;;4975840;28;20174;-71
2021/10/17 07:08:47;;;;;;;59.63;35.78;;;;;;;;;;4975620;28;20053;-72
2021/10/17 07:11:13;;;;;;;60.20;35.83;;;;;;;;;;4975292;28;20038;-70
2021/10/17 07:13:39;;;;;;;58.55;36.38;;;;;;;;;;4975379;28;20117;-71
2021/10/17 07:16:05;;;;;;;91.13;44.88;;;;;;;;;;4971306;28;20050;-71
2021/10/17 07:18:31;;;;;;;42.55;27.35;;;;;;;;;;4974148;28;20134;-71
2021/10/17 07:20:58;;;;;;;43.22;26.55;;;;;;;;;;4975399;28;20106;-69
2021/10/17 07:23:24;;;;;;;42.08;26.48;;;;;;;;;;4973990;28;20031;-69
2021/10/17 07:25:50;;;;;;;39.47;26.27;;;;;;;;;;4974030;28;20114;-69
2021/10/17 07:28:17;;;;;;;43.70;26.45;;;;;;;;;;4973692;28;20507;-70
2021/10/17 07:30:44;;;;;;;41.60;26.95;;;;;;;;;;4975176;28;20062;-70
2021/10/17 07:33:10;;;;;;;42.75;27.30;;;;;;;;;;4973771;28;20464;-70
2021/10/17 07:35:36;;;;;;;41.28;26.98;;;;;;;;;;4974889;28;20075;-69
2021/10/17 07:38:02;;;;;;;39.78;25.13;;;;;;;;;;4975027;28;20066;-69
2021/10/17 07:40:29;;;;;;;42.13;25.92;;;;;;;;;;4974968;28;20022;-70
2021/10/17 07:42:55;;;;;;;37.70;24.58;;;;;;;;;;4974943;28;20162;-71
2021/10/17 07:45:21;;;;;;;37.28;23.60;;;;;;;;;;4973567;28;20109;-70
2021/10/17 07:47:47;;;;;;;31.75;22.17;;;;;;;;;;4974887;28;20054;-71
2021/10/17 07:50:14;;;;;;;38.30;23.20;;;10.70;99.90;;;;;;4973852;28;20379;-71
2021/10/17 07:52:40;;;;;;;33.42;22.80;;;;;;;;;;4975059;28;20027;-71
2021/10/17 07:55:07;;;;;;;35.67;23.45;;;;;;;;;;4974630;28;20479;-68
2021/10/17 07:57:46;;;;;;;35.47;23.33;;;;;;;;;;4974627;28;20110;-72
2021/10/17 08:00:13;;;;;;;34.38;22.27;;;;;;;;;;4973429;28;20074;-70
2021/10/17 08:02:39;;;;;;;37.72;23.58;;;;;;;;;;4974267;28;20467;-69
2021/10/17 08:05:05;;;;;;;31.05;22.95;;;;;;;;;;4974542;28;20039;-70
2021/10/17 08:07:31;;;;;;;36.15;24.67;;;10.70;99.90;;;;;;4974494;28;20467;-71
2021/10/17 08:09:57;;;;;;;38.83;23.85;;;;;;;;;;4974534;28;20109;-70
2021/10/17 08:12:23;;;;;;;35.47;22.67;;;11.60;99.90;;;;;;4974464;28;20085;-72
2021/10/17 08:14:49;;;;;;;34.67;23.75;;;11.80;99.90;;;;;;4973112;28;20035;-70
2021/10/17 08:17:15;;;;;;;34.40;22.95;;;11.80;99.90;;;;;;4971561;28;20046;-68
2021/10/17 08:19:40;;;;;;;33.80;21.88;;;12.00;99.90;;;;;;4973543;28;20069;-67
2021/10/17 08:22:06;;;;;;;34.17;23.33;;;12.00;99.90;;;;;;4973111;28;20058;-71
2021/10/17 08:24:32;;;;;;;31.85;21.88;;;12.10;99.90;;;;;;4972676;28;20031;-69
2021/10/17 08:26:58;;;;;;;34.80;22.33;;;12.20;99.90;;;;;;4973609;28;20460;-66
2021/10/17 08:29:24;;;;;;;31.38;20.83;;;12.30;99.90;;;;;;4974470;28;20031;-67
2021/10/17 08:31:50;;;;;;;35.92;23.67;;;12.40;99.90;;;;;;4974093;28;20058;-66
2021/10/17 08:34:16;;;;;;;37.17;23.15;;;12.50;99.90;;;;;;4972741;28;20066;-68
2021/10/17 08:36:42;;;;;;;36.45;24.02;;;12.60;99.90;;;;;;4972856;28;20065;-69
2021/10/17 08:39:07;;;;;;;37.60;25.10;;;12.70;99.90;;;;;;4972790;28;20137;-67
2021/10/17 08:41:33;;;;;;;35.95;23.42;;;12.80;99.90;;;;;;4973986;28;20031;-69
2021/10/17 08:43:59;;;;;;;33.10;22.08;;;12.90;99.90;;;;;;4973738;28;20027;-67
2021/10/17 08:46:27;;;;;;;36.38;23.63;;;13.00;99.90;;;;;;4974031;28;20429;-67
2021/10/17 08:48:56;;;;;;;33.60;22.35;;;13.10;99.90;;;;;;4974088;28;20035;-69
2021/10/17 08:51:26;;;;;;;41.17;24.95;;;13.10;99.90;;;;;;4974052;28;20031;-66
2021/10/17 08:53:53;;;;;;;36.90;23.15;;;13.20;99.90;;;;;;4973672;28;20447;-70
2021/10/17 08:56:19;;;;;;;33.40;23.10;;;13.30;99.90;;;;;;4973989;28;20030;-68
2021/10/17 08:58:45;;;;;;;36.95;25.65;;;13.30;99.90;;;;;;4974042;28;20031;-68
2021/10/17 09:01:13;;;;;;;36.55;24.08;;;13.40;99.90;;;;;;4973795;28;20102;-71
2021/10/17 09:03:39;;;;;;;35.65;24.08;;;13.60;99.90;;;;;;4973777;28;20048;-69
2021/10/17 09:06:25;;;;;;;38.25;24.83;;;13.70;99.90;;;;;;4973861;28;20070;-70
2021/10/17 09:09:20;;;;;;;35.53;24.05;;;13.80;99.90;;;;;;4973912;28;20031;-66
2021/10/17 09:11:56;;;;;;;40.20;24.80;;;13.90;99.90;;;;;;4973320;28;20030;-68
2021/10/17 09:14:24;;;;;;;34.53;22.60;;;13.90;99.90;;;;;;4973692;28;20043;-66
2021/10/17 09:16:56;;;;;;;35.40;23.50;;;14.00;99.90;;;;;;4972133;28;20055;-68
2021/10/17 09:19:41;;;;;;;34.88;23.70;;;14.10;99.90;;;;;;4972691;28;20419;-69
2021/10/17 09:22:09;;;;;;;37.80;25.65;;;14.20;99.90;;;;;;4972435;28;20456;-69
2021/10/17 09:24:46;;;;;;;33.90;22.73;;;14.40;99.90;;;;;;4973685;28;20379;-69
2021/10/17 09:27:18;;;;;;;41.70;25.02;;;14.50;99.90;;;;;;4970834;28;20038;-69
2021/10/17 09:29:52;;;;;;;34.92;23.35;;;14.60;99.90;;;;;;4971919;28;20031;-69
2021/10/17 09:32:22;;;;;;;35.70;25.17;;;14.70;99.90;;;;;;4972782;28;20031;-70
2021/10/17 09:34:52;;;;;;;38.22;26.17;;;14.70;99.90;;;;;;4974167;28;20463;-72
2021/10/17 09:37:17;;;;;;;37.92;26.38;;;14.90;99.90;;;;;;4977001;28;20447;-70
2021/10/17 09:39:51;;;;;;;38.10;25.92;;;15.00;99.90;;;;;;4976799;28;20073;-69
2021/10/17 09:42:19;;;;;;;36.08;25.52;;;15.10;99.90;;;;;;4976771;28;20023;-70
2021/10/17 09:44:46;;;;;;;34.38;22.55;;;15.30;99.90;;;;;;4975416;28;20458;-71
2021/10/17 09:47:12;;;;;;;37.05;23.67;;;15.30;99.90;;;;;;4976866;28;20476;-69
2021/10/17 09:49:38;;;;;;;38.05;26.02;;;15.50;99.90;;;;;;4975611;28;20026;-69
2021/10/17 09:52:16;;;;;;;36.95;25.98;;;15.50;99.90;;;;;;4976659;28;20487;-69
2021/10/17 09:54:49;;;;;;;39.17;26.23;;;15.70;99.90;;;;;;4976771;28;20443;-69
2021/10/17 09:57:16;;;;;;;40.70;25.90;;;15.80;99.90;;;;;;4976534;28;20038;-68
2021/10/17 09:59:42;;;;;;;31.15;22.33;;;16.10;99.90;;;;;;4975163;28;20146;-70
2021/10/17 10:02:11;;;;;;;35.72;23.30;;;16.10;96.80;;;;;;4976262;28;20102;-68
2021/10/17 10:04:44;;;;;;;35.03;23.60;;;16.30;97.00;;;;;;4976719;28;20023;-71
2021/10/17 10:07:14;;;;;;;38.75;25.48;;;16.70;96.40;;;;;;4976534;28;20069;-71
2021/10/17 10:09:46;;;;;;;31.80;22.55;;;17.00;96.30;;;;;;4976711;28;20110;-70
2021/10/17 10:12:12;;;;;;;;;;;17.30;94.00;;;;;;4975821;28;20031;-71
2021/10/17 10:14:41;;;;;;;28.83;20.88;;;17.90;92.40;;;;;;4976506;28;19914;-72
2021/10/17 10:17:10;;;;;;;28.75;18.83;;;18.20;91.40;;;;;;4976339;28;20178;-71
2021/10/17 10:19:38;;;;;;;26.85;16.95;;;18.50;90.30;;;;;;4976411;28;20035;-71
2021/10/17 10:22:04;;;;;;;25.77;17.92;;;19.10;85.40;;;;;;4975990;28;20034;-71
2021/10/17 10:24:32;;;;;;;20.42;15.82;;;19.70;84.40;;;;;;4985127;28;20031;-72
2021/10/17 10:26:59;;;;;;;24.27;17.55;;;20.00;82.70;;;;;;4983432;28;20018;-73
2021/10/17 10:29:29;;;;;;;27.48;18.35;;;20.50;79.20;;;;;;4993990;28;20161;-71
2021/10/17 10:32:00;;;;;;;23.52;17.50;;;21.30;77.80;;;;;;4995667;28;20113;-72
2021/10/17 10:34:28;;;;;;;29.83;19.33;;;21.70;74.80;;;;;;4989844;28;20961;-72
2021/10/17 10:36:55;;;;;;;18.63;13.55;;;22.20;75.20;;;;;;4975400;28;20375;-68
2021/10/17 10:39:32;;;;;;;16.50;11.98;;;22.60;70.20;;;;;;4975569;28;20093;-68
2021/10/17 10:42:15;;;;;;;25.80;15.75;;;23.10;67.80;;;;;;4974730;28;20031;-71
2021/10/17 10:44:41;;;;;;;22.25;15.45;;;23.80;66.20;;;;;;4975949;28;20114;-70
2021/10/17 10:47:25;;;;;;;24.60;17.27;;;24.40;66.20;;;;;;4975608;28;20518;-70
2021/10/17 10:49:53;;;;;;;44.95;26.83;;;23.90;66.70;;;;;;4975566;28;20391;-69
2021/10/17 10:52:22;;;;;;;21.92;16.08;;;;;;;;;;4975624;28;20027;-68
2021/10/17 10:54:48;;;;;;;96.72;51.03;;;24.00;64.90;;;;;;4975641;28;20043;-71
2021/10/17 10:57:22;;;;;;;48.88;30.50;;;24.90;63.70;;;;;;4974506;28;20031;-71
2021/10/17 11:00:01;;;;;;;30.35;21.23;;;25.80;61.90;;;;;;4974102;28;20054;-70
2021/10/17 11:02:28;;;;;;;30.13;18.52;;;26.40;62.50;;;;;;4975518;28;20110;-71
2021/10/17 11:04:53;;;;;;;24.55;15.13;;;26.40;58.30;;;;;;4975452;28;20530;-68
2021/10/17 11:07:20;;;;;;;27.65;17.80;;;26.30;57.60;;;;;;4973972;28;20027;-72
2021/10/17 11:09:47;;;;;;;22.75;14.52;;;26.90;57.60;;;;;;4975575;28;20027;-70
2021/10/17 11:12:46;;;;;;;18.83;14.35;;;26.40;55.20;;;;;;4975442;28;20058;-70
2021/10/17 11:15:15;;;;;;;21.35;13.60;;;26.30;55.00;;;;;;4969622;28;20051;-71
2021/10/17 11:18:03;;;;;;;17.85;13.88;;;26.30;55.00;;;;;;4973337;28;20451;-71
2021/10/17 11:20:43;;;;;;;25.05;17.52;;;27.80;54.50;;;;;;4975319;28;20038;-72
2021/10/17 11:23:21;;;;;;;20.48;15.60;;;27.80;53.40;;;;;;4975338;28;20498;-71
2021/10/17 11:25:55;;;;;;;51.13;32.70;;;;;;;;;;4975262;28;20019;-72
2021/10/17 11:28:25;;;;;;;22.73;17.63;;;;;;;;;;4975171;28;20026;-71
2021/10/17 11:31:21;;;;;;;20.00;15.65;;;29.00;51.20;;;;;;4973839;28;20031;-71
2021/10/17 11:33:48;;;;;;;19.20;14.52;;;29.40;50.40;;;;;;4974838;28;20042;-70
2021/10/17 11:36:16;;;;;;;18.30;13.35;;;29.30;51.10;;;;;;4974921;28;20060;-70
2021/10/17 11:38:43;;;;;;;19.17;14.00;;;28.90;51.00;;;;;;4973543;28;20034;-70
2021/10/17 11:41:16;;;;;;;16.33;13.15;;;28.60;50.50;;;;;;4973760;28;20030;-70
2021/10/17 11:43:43;;;;;;;15.70;13.25;;;;;;;;;;4974631;28;20356;-72
2021/10/17 11:46:12;;;;;;;20.08;12.65;;;27.90;49.70;;;;;;4974890;28;20026;-70
2021/10/17 11:48:39;;;;;;;16.80;13.82;;;;;;;;;;4974851;28;20058;-71
2021/10/17 11:51:06;;;;;;;16.65;13.80;;;;;;;;;;4974836;28;20825;-71
2021/10/17 11:53:33;;;;;;;16.98;13.85;;;;;;;;;;4974334;28;20420;-70
2021/10/17 11:55:59;;;;;;;25.80;18.55;;;29.20;50.20;;;;;;4974358;28;20392;-71
2021/10/17 11:58:27;;;;;;;21.08;16.48;;;28.40;49.80;;;;;;4973877;28;20041;-71
2021/10/17 12:01:06;;;;;;;21.92;14.50;;;26.30;53.20;;;;;;4973356;28;20030;-71
2021/10/17 12:03:32;;;;;;;19.77;14.45;;;24.10;56.90;;;;;;4973324;28;20026;-71
2021/10/17 12:06:00;;;;;;;17.55;13.68;;;23.00;60.50;;;;;;4974609;28;20031;-71
2021/10/17 12:08:34;;;;;;;16.55;13.77;;;21.90;62.60;;;;;;4974216;28;20023;-72
2021/10/17 12:11:11;;;;;;;18.23;13.40;;;20.90;66.30;;;;;;4974233;28;20037;-68
2021/10/17 12:13:46;;;;;;;20.23;13.68;;;20.80;68.10;;;;;;4973062;28;20471;-66
2021/10/17 12:16:15;;;;;;;19.67;14.70;;;21.20;66.60;;;;;;4973071;28;20027;-70
2021/10/17 12:18:43;;;;;;;18.75;13.02;;;20.40;66.30;;;;;;4974474;28;20101;-67
2021/10/17 12:21:10;;;;;;;18.25;14.00;;;20.80;67.80;;;;;;4972891;28;20117;-69
2021/10/17 12:23:38;;;;;;;18.48;13.02;;;20.70;66.90;;;;;;4974286;28;20031;-67
2021/10/17 12:26:05;;;;;;;16.90;12.40;;;21.50;66.00;;;;;;4974260;28;20082;-69
2021/10/17 12:28:31;;;;;;;18.48;13.30;;;21.40;65.20;;;;;;4972744;28;20125;-68
2021/10/17 12:30:59;;;;;;;18.50;12.98;;;20.60;65.80;;;;;;4974503;28;20106;-70
2021/10/17 12:33:35;;;;;;;15.18;12.35;;;21.40;66.20;;;;;;4974071;28;20090;-69
2021/10/17 12:36:03;;;;;;;17.25;11.52;;;20.80;66.40;;;;;;4972985;28;20420;-67
2021/10/17 12:38:36;;;;;;;17.25;12.52;;;20.10;69.10;;;;;;4972915;28;20126;-68
2021/10/17 12:41:05;;;;;;;16.48;12.65;;;19.80;72.20;;;;;;4970772;28;20086;-67
2021/10/17 12:43:34;;;;;;;15.93;11.63;;;21.30;66.90;;;;;;4973169;28;20110;-68
2021/10/17 12:46:20;;;;;;;187.75;74.57;;;21.40;65.40;;;;;;4974310;28;20041;-67
2021/10/17 12:48:52;;;;;;;37.55;20.55;;;21.20;64.30;;;;;;4973534;28;20391;-67
2021/10/17 12:51:30;;;;;;;17.90;12.25;;;22.30;63.00;;;;;;4973648;28;20023;-68